Time;durP1;ratioP1;P1;durP2;ratioP2;P2;SDS_P1;SDS_P2;PMS_P1;PMS_P2;Temp;Humidity;BMP_temperature;BMP_pressure;BME280_temperature;BME280_humidity;BME280_pressure;Samples;Min_cycle;Max_cycle;Signal;HPM_P1;HPM_P2
2021/11/11 00:01:18;;;;;;;23.03;19.67;;;;;;;6.17;76.99;100307.66;5069290;28;20231;-82
2021/11/11 00:03:47;;;;;;;25.37;19.43;;;;;;;5.98;77.43;100308.09;5049969;28;20221;-82
2021/11/11 00:06:13;;;;;;;24.37;19.30;;;;;;;6.04;78.17;100310.06;5046035;28;20229;-81
2021/11/11 00:08:40;;;;;;;23.67;18.93;;;;;;;6.13;77.13;100313.50;5047435;28;20584;-82
2021/11/11 00:11:08;;;;;;;25.37;19.00;;;;;;;6.00;77.42;100307.94;5049512;28;20225;-80
2021/11/11 00:13:34;;;;;;;23.87;19.57;;;;;;;6.01;77.68;100301.63;5068435;28;20209;-81
2021/11/11 00:16:01;;;;;;;25.27;20.23;;;;;;;5.85;78.41;100289.19;5030714;28;20633;-81
2021/11/11 00:18:28;;;;;;;26.30;19.27;;;;;;;5.95;77.06;100296.97;5068506;28;20226;-81
2021/11/11 00:20:56;;;;;;;25.23;19.47;;;;;;;5.88;77.99;100282.72;5031753;28;20312;-81
2021/11/11 00:23:23;;;;;;;26.23;19.60;;;;;;;5.96;77.35;100294.16;5047428;28;20284;-80
2021/11/11 00:25:50;;;;;;;25.43;20.73;;;;;;;5.91;78.36;100295.66;5033604;28;20230;-81
2021/11/11 00:28:21;;;;;;;26.20;20.53;;;;;;;5.80;78.37;100277.41;5066359;28;20523;-81
2021/11/11 00:30:51;;;;;;;25.03;19.73;;;;;;;5.90;78.37;100294.84;5038549;23;20218;-82
2021/11/11 00:33:18;;;;;;;25.70;20.57;;;;;;;5.71;78.76;100289.91;5065776;28;20233;-81
2021/11/11 00:35:45;;;;;;;25.70;20.77;;;;;;;5.78;78.86;100286.38;5048812;28;20248;-81
2021/11/11 00:38:13;;;;;;;26.13;20.63;;;;;;;5.63;78.60;100287.28;5065504;28;20509;-81
2021/11/11 00:40:40;;;;;;;26.13;20.00;;;;;;;5.68;79.26;100292.91;5067304;28;20359;-81
2021/11/11 00:43:10;;;;;;;26.73;20.60;;;;;;;5.69;79.12;100290.06;5048485;28;20217;-81
2021/11/11 00:45:38;;;;;;;26.77;20.87;;;;;;;5.62;79.19;100281.13;5065872;28;20299;-81
2021/11/11 00:48:06;;;;;;;26.07;20.20;;;;;;;5.68;79.67;100293.75;5030175;28;20655;-81
2021/11/11 00:50:35;;;;;;;28.20;21.33;;;;;;;5.50;79.95;100287.84;5046696;28;20323;-81
2021/11/11 00:53:08;;;;;;;26.47;20.97;;;;;;;5.47;80.07;100289.97;5029566;28;20232;-80
2021/11/11 00:55:37;;;;;;;28.47;22.33;;;;;;;5.59;79.75;100288.63;5050262;28;20213;-81
2021/11/11 00:58:16;;;;;;;28.10;21.23;;;;;;;5.52;79.92;100291.13;5031897;28;20653;-81
2021/11/11 01:00:45;;;;;;;25.90;20.83;;;;;;;5.52;80.15;100296.44;5031856;28;20221;-81
2021/11/11 01:03:13;;;;;;;31.20;23.30;;;;;;;5.46;80.30;100294.47;5047515;28;20344;-81
2021/11/11 01:05:40;;;;;;;29.07;22.47;;;;;;;5.47;80.59;100301.44;5048245;28;20236;-81
2021/11/11 01:08:07;;;;;;;28.00;22.73;;;;;;;5.43;80.26;100294.81;5081018;23;20259;-81
2021/11/11 01:10:35;;;;;;;29.13;22.30;;;;;;;5.32;80.85;100288.03;5084418;28;20225;-82
2021/11/11 01:13:04;;;;;;;30.37;23.33;;;;;;;5.38;80.61;100288.34;5083754;28;20224;-80
2021/11/11 01:15:33;;;;;;;29.63;23.03;;;;;;;5.40;80.33;100297.81;5084628;28;20303;-80
2021/11/11 01:18:03;;;;;;;31.97;23.73;;;;;;;5.26;80.75;100277.25;5086402;28;20646;-82
2021/11/11 01:20:31;;;;;;;30.97;23.47;;;;;;;5.35;81.13;100297.50;5085794;28;20209;-81
2021/11/11 01:22:58;;;;;;;27.03;22.63;;;;;;;5.24;81.05;100279.25;5073854;28;20228;-80
2021/11/11 01:25:28;;;;;;;30.00;23.40;;;;;;;5.26;81.42;100286.06;5075023;28;20667;-81
2021/11/11 01:28:01;;;;;;;31.10;23.83;;;;;;;5.24;81.22;100269.44;5086000;28;20232;-81
2021/11/11 01:30:34;;;;;;;30.00;23.40;;;;;;;5.20;81.16;100281.41;5067836;28;20232;-81
2021/11/11 01:33:09;;;;;;;30.67;23.87;;;;;;;5.23;81.79;100275.75;5086800;28;20238;-81
2021/11/11 01:35:36;;;;;;;31.23;24.33;;;;;;;5.15;81.32;100272.28;5103055;28;20229;-81
2021/11/11 01:38:06;;;;;;;31.37;24.97;;;;;;;5.07;81.67;100273.16;5085662;28;20220;-81
2021/11/11 01:40:34;;;;;;;31.17;24.07;;;;;;;5.03;82.11;100261.22;5101605;28;20213;-82
2021/11/11 01:43:04;;;;;;;32.43;24.50;;;;;;;4.96;82.55;100257.56;5052909;28;20193;-81
2021/11/11 01:45:40;;;;;;;32.53;24.83;;;;;;;4.95;82.44;100266.50;5069215;28;20234;-81
2021/11/11 01:48:17;;;;;;;33.97;25.70;;;;;;;4.90;82.42;100276.81;5085807;28;20255;-81
2021/11/11 01:50:46;;;;;;;34.30;25.60;;;;;;;4.92;83.04;100266.84;5086721;28;20216;-82
2021/11/11 01:53:15;;;;;;;33.33;25.60;;;;;;;4.87;83.18;100262.03;5085275;28;20250;-81
2021/11/11 01:55:44;;;;;;;34.30;24.67;;;;;;;4.94;82.97;100269.34;5084278;28;20233;-81
2021/11/11 01:58:11;;;;;;;35.27;25.30;;;;;;;4.98;82.81;100265.34;5066126;28;20236;-81
2021/11/11 02:00:54;;;;;;;32.10;24.90;;;;;;;4.97;82.32;100271.66;5084177;28;20228;-81
2021/11/11 02:03:33;;;;;;;30.73;24.37;;;;;;;4.86;83.30;100247.09;5099716;28;20216;-80
2021/11/11 02:06:12;;;;;;;32.83;24.63;;;;;;;4.87;83.08;100261.22;5069578;28;20244;-82
2021/11/11 02:08:54;;;;;;;32.63;24.57;;;;;;;4.76;83.43;100256.22;5081413;28;20531;-81
2021/11/11 02:11:28;;;;;;;35.67;27.03;;;;;;;4.78;83.96;100255.09;5068788;28;20278;-81
2021/11/11 02:14:12;;;;;;;35.20;26.23;;;;;;;4.77;83.62;100257.91;5084837;28;20235;-81
2021/11/11 02:16:39;;;;;;;35.67;25.83;;;;;;;4.73;83.35;100246.78;5084002;28;20220;-81
2021/11/11 02:19:11;;;;;;;35.47;25.70;;;;;;;4.74;83.47;100240.50;5070268;28;20304;-81
2021/11/11 02:21:44;;;;;;;35.67;27.07;;;;;;;4.69;83.84;100237.50;5084675;28;20258;-81
2021/11/11 02:24:12;;;;;;;34.07;25.67;;;;;;;4.74;83.89;100244.97;5085360;28;20201;-81
2021/11/11 02:26:51;;;;;;;35.43;26.37;;;;;;;4.74;83.73;100251.13;5069429;28;20235;-82
2021/11/11 02:29:38;;;;;;;35.73;26.30;;;;;;;4.70;83.79;100260.41;5110038;22;20224;-82
2021/11/11 02:32:06;;;;;;;37.13;26.23;;;;;;;4.77;84.51;100252.59;5086425;28;20231;-83
2021/11/11 02:34:38;;;;;;;36.63;26.90;;;;;;;4.75;83.86;100259.91;5103320;28;20220;-81
2021/11/11 02:37:06;;;;;;;36.53;27.07;;;;;;;4.82;84.43;100255.56;5085101;28;20228;-81
2021/11/11 02:39:52;;;;;;;36.07;26.63;;;;;;;4.86;84.38;100256.91;5089182;28;20313;-81
2021/11/11 02:42:27;;;;;;;35.30;27.03;;;;;;;4.81;84.24;100249.44;5103568;28;20601;-81
2021/11/11 02:45:02;;;;;;;37.40;26.33;;;;;;;4.90;84.19;100244.94;5068540;28;20228;-82
2021/11/11 02:47:35;;;;;;;34.87;25.90;;;;;;;4.88;84.28;100254.91;5100542;28;20238;-81
2021/11/11 02:50:05;;;;;;;37.37;26.73;;;;;;;4.77;84.77;100248.13;5066935;28;20227;-81
2021/11/11 02:52:32;;;;;;;37.33;27.00;;;;;;;4.82;83.92;100245.78;5065291;28;20269;-81
2021/11/11 02:54:59;;;;;;;39.37;27.33;;;;;;;4.83;83.96;100259.91;5099146;28;20323;-81
2021/11/11 02:57:33;;;;;;;35.27;26.67;;;;;;;4.88;84.58;100252.25;5068727;28;20232;-81
2021/11/11 03:00:15;;;;;;;36.37;26.93;;;;;;;4.76;84.83;100261.53;5084991;28;20299;-81
2021/11/11 03:02:46;;;;;;;37.30;26.80;;;;;;;4.81;84.43;100259.22;5070315;28;20227;-81
2021/11/11 03:05:24;;;;;;;35.17;26.53;;;;;;;4.78;84.79;100257.75;5102121;28;20230;-82
2021/11/11 03:07:53;;;;;;;38.97;27.67;;;;;;;4.76;85.10;100235.00;5086879;28;20246;-82
2021/11/11 03:10:24;;;;;;;37.13;27.13;;;;;;;4.79;84.64;100255.91;5071906;28;20211;-82
2021/11/11 03:12:55;;;;;;;34.40;25.83;;;;;;;4.72;84.92;100241.63;5072081;28;20540;-83
2021/11/11 03:15:25;;;;;;;36.77;25.37;;;;;;;4.81;84.79;100257.41;5088977;28;20232;-82
2021/11/11 03:17:52;;;;;;;37.20;26.80;;;;;;;4.78;84.55;100246.28;5068724;28;20235;-81
2021/11/11 03:20:20;;;;;;;33.13;25.23;;;;;;;4.79;84.66;100247.97;5068048;28;20262;-82
2021/11/11 03:22:48;;;;;;;34.00;25.60;;;;;;;4.82;84.49;100242.31;5084651;28;20236;-81
2021/11/11 03:25:23;;;;;;;34.67;26.17;;;;;;;4.89;85.14;100235.34;5100943;28;20226;-81
2021/11/11 03:27:51;;;;;;;34.67;26.70;;;;;;;5.07;84.58;100246.59;5061975;23;20242;-81
2021/11/11 03:30:22;;;;;;;35.83;26.37;;;;;;;5.01;84.62;100236.63;4991297;28;20277;-81
2021/11/11 03:32:52;;;;;;;36.00;25.73;;;;;;;5.07;84.45;100235.97;4989830;28;20227;-82
2021/11/11 03:35:21;;;;;;;33.87;25.27;;;;;;;5.18;83.94;100238.25;5017108;28;20227;-80
2021/11/11 03:37:51;;;;;;;34.17;25.37;;;;;;;5.23;84.12;100243.88;5004679;28;20230;-81
2021/11/11 03:40:28;;;;;;;33.67;25.00;;;;;;;5.24;83.53;100242.06;4993059;28;20759;-81
2021/11/11 03:42:56;;;;;;;31.13;23.60;;;;;;;5.26;83.70;100243.56;5005587;28;20245;-82
2021/11/11 03:45:27;;;;;;;33.53;24.83;;;;;;;5.21;83.89;100239.75;5007649;28;20258;-81
2021/11/11 03:47:55;;;;;;;35.30;26.00;;;;;;;5.22;83.77;100244.91;4993476;28;20230;-81
2021/11/11 03:50:22;;;;;;;34.37;24.17;;;;;;;5.31;83.52;100246.53;5025103;28;20231;-81
2021/11/11 03:52:49;;;;;;;37.00;25.17;;;;;;;5.24;83.46;100242.88;5026802;28;20226;-81
2021/11/11 03:55:19;;;;;;;36.30;25.43;;;;;;;5.28;83.17;100251.34;5029277;23;20233;-81
2021/11/11 03:57:51;;;;;;;34.87;25.13;;;;;;;5.25;83.39;100246.38;5011368;28;20230;-81
2021/11/11 04:00:18;;;;;;;33.10;23.67;;;;;;;5.16;83.37;100226.97;5026828;28;20306;-81
2021/11/11 04:02:52;;;;;;;34.70;24.67;;;;;;;5.31;83.61;100243.88;5027298;28;20306;-81
2021/11/11 04:05:20;;;;;;;34.93;24.07;;;;;;;5.21;83.37;100242.41;5046390;23;20229;-81
2021/11/11 04:07:52;;;;;;;34.67;24.70;;;;;;;5.25;83.34;100247.22;5082978;23;20212;-80
2021/11/11 04:10:20;;;;;;;34.73;24.60;;;;;;;5.23;82.98;100240.38;5090067;28;20246;-81
2021/11/11 04:13:17;;;;;;;36.43;24.90;;;;;;;5.26;83.33;100242.72;5094374;28;20185;-81
2021/11/11 04:15:47;;;;;;;32.63;24.10;;;;;;;5.25;83.47;100249.03;5106802;28;20228;-81
2021/11/11 04:18:39;;;;;;;34.20;23.93;;;;;;;5.37;83.48;100258.28;5107763;28;20223;-80
2021/11/11 04:21:06;;;;;;;33.43;24.10;;;;;;;5.38;82.73;100243.16;5067768;28;20234;-81
2021/11/11 04:23:33;;;;;;;32.73;23.83;;;;;;;5.39;83.22;100250.97;5052783;28;20263;-81
2021/11/11 04:26:12;;;;;;;35.80;24.93;;;;;;;5.31;82.92;100241.22;5067045;28;20244;-81
2021/11/11 04:28:58;;;;;;;34.03;24.20;;;;;;;5.32;83.31;100247.34;5072135;28;20541;-82
2021/11/11 04:31:31;;;;;;;33.90;24.77;;;;;;;5.33;82.67;100231.22;5070075;28;20255;-81
2021/11/11 04:34:10;;;;;;;37.07;25.47;;;;;;;5.33;82.86;100235.72;5053538;28;20643;-79
2021/11/11 04:37:08;;;;;;;35.97;24.57;;;;;;;5.31;82.42;100219.13;5087620;28;20209;-81
2021/11/11 05:03:39;;;;;;;44.73;26.70;;;;;;;5.18;83.42;100229.47;5071043;28;20236;-82
2021/11/11 05:06:08;;;;;;;43.23;27.17;;;;;;;5.16;83.93;100228.81;5054788;28;20193;-81
2021/11/11 05:08:35;;;;;;;42.80;27.27;;;;;;;5.16;83.72;100228.81;5088574;28;20611;-82
2021/11/11 05:11:02;;;;;;;45.60;27.57;;;;;;;5.08;83.85;100232.31;5069182;28;20223;-81
2021/11/11 05:13:29;;;;;;;42.70;27.13;;;;;;;5.17;83.78;100238.44;5069944;28;20558;-81
2021/11/11 05:15:59;;;;;;;42.93;26.60;;;;;;;5.14;84.08;100241.41;5053437;28;20255;-81
2021/11/11 05:18:27;;;;;;;43.27;26.80;;;;;;;5.17;84.29;100225.97;5085479;28;20530;-81
2021/11/11 05:21:04;;;;;;;43.63;26.33;;;;;;;5.24;84.20;100239.41;5089085;28;20217;-81
2021/11/11 05:23:34;;;;;;;41.63;26.03;;;;;;;5.17;83.84;100220.66;5087622;28;20196;-81
2021/11/11 05:26:04;;;;;;;41.67;25.33;;;;;;;5.11;83.76;100217.84;5052575;28;20251;-81
2021/11/11 05:28:36;;;;;;;43.27;26.27;;;;;;;5.23;84.27;100230.59;5058078;28;20193;-81
2021/11/11 05:31:10;;;;;;;43.87;28.07;;;;;;;5.14;83.80;100217.50;5088320;28;20236;-81
2021/11/11 05:33:44;;;;;;;43.47;28.07;;;;;;;5.04;84.51;100208.94;5092840;28;20229;-81
2021/11/11 05:36:30;;;;;;;42.00;26.37;;;;;;;5.15;84.48;100227.13;5092378;28;20247;-81
2021/11/11 05:39:00;;;;;;;42.53;26.37;;;;;;;5.13;84.23;100229.16;5089810;28;20226;-82
2021/11/11 05:41:32;;;;;;;45.20;26.23;;;;;;;5.15;84.17;100235.94;5074353;28;20529;-84
2021/11/11 05:44:08;;;;;;;43.40;25.77;;;;;;;5.24;84.15;100242.06;5074318;28;20225;-81
2021/11/11 05:46:38;;;;;;;40.10;25.33;;;;;;;5.14;83.65;100247.56;5093763;22;20246;-81
2021/11/11 05:49:26;;;;;;;42.77;25.47;;;;;;;5.13;84.19;100253.06;5086147;28;20231;-81
2021/11/11 05:51:55;;;;;;;40.17;25.40;;;;;;;5.18;84.63;100266.66;5098846;22;20224;-81
2021/11/11 05:54:25;;;;;;;39.70;24.67;;;;;;;5.12;84.19;100257.53;5072835;28;20224;-81
2021/11/11 05:56:53;;;;;;;44.33;24.47;;;;;;;5.11;84.20;100265.66;5098725;22;20221;-81
2021/11/11 05:59:19;;;;;;;40.60;23.67;;;;;;;5.07;84.55;100259.03;5100747;22;20226;-81
2021/11/11 06:01:53;;;;;;;40.53;25.10;;;;;;;5.08;84.49;100264.19;5065960;28;20225;-81
2021/11/11 06:04:26;;;;;;;37.83;24.17;;;;;;;5.23;84.33;100266.97;5076521;22;20241;-80
2021/11/11 06:06:57;;;;;;;38.70;24.23;;;;;;;5.12;83.67;100262.03;5071320;28;20203;-81
2021/11/11 06:09:31;;;;;;;41.67;24.40;;;;;;;5.20;83.90;100269.97;5072261;22;20312;-81
2021/11/11 06:12:02;;;;;;;39.07;24.30;;;;;;;5.09;84.92;100243.75;5111284;22;20323;-81
2021/11/11 06:14:34;;;;;;;42.33;24.43;;;;;;;5.19;84.37;100269.13;5090314;28;20224;-81
2021/11/11 06:17:06;;;;;;;43.23;23.97;;;;;;;5.22;83.98;100263.50;5106368;28;20216;-81
2021/11/11 06:19:40;;;;;;;40.60;23.67;;;;;;;5.34;84.58;100266.59;5106360;28;20231;-81
2021/11/11 06:22:09;;;;;;;43.40;25.23;;;;;;;5.44;83.69;100263.75;5107553;28;20283;-82
2021/11/11 06:24:37;;;;;;;44.80;25.90;;;;;;;5.37;83.29;100274.22;5114133;22;20224;-81
2021/11/11 06:27:08;;;;;;;43.30;24.57;;;;;;;5.33;83.84;100265.78;5091068;28;20775;-81
2021/11/11 06:29:36;;;;;;;44.50;24.23;;;;;;;5.49;83.14;100282.69;5090295;28;20184;-82
2021/11/11 06:32:05;;;;;;;42.23;23.90;;;;;;;5.45;83.04;100276.88;5106942;28;20315;-81
2021/11/11 06:34:52;;;;;;;44.00;25.03;;;;;;;5.40;83.28;100270.41;5107579;28;20204;-81
2021/11/11 06:37:24;;;;;;;40.83;23.63;;;;;;;5.49;82.86;100282.69;5113515;22;20230;-82
2021/11/11 06:39:51;;;;;;;42.10;23.37;;;;;;;5.47;83.24;100293.47;5112160;22;20296;-81
2021/11/11 06:42:19;;;;;;;41.13;23.53;;;;;;;5.52;83.39;100295.63;5107218;22;20496;-80
2021/11/11 06:44:47;;;;;;;37.93;22.17;;;;;;;5.58;83.13;100293.13;5110868;22;20208;-81
2021/11/11 06:47:15;;;;;;;40.53;23.63;;;;;;;5.57;82.66;100295.94;5071989;28;20293;-81
2021/11/11 06:49:43;;;;;;;35.37;21.77;;;;;;;5.58;82.16;100294.94;5106981;28;20283;-81
2021/11/11 06:52:12;;;;;;;34.37;21.93;;;;;;;5.64;82.50;100292.44;5105897;28;20269;-81
2021/11/11 06:54:40;;;;;;;33.33;20.80;;;;;;;5.68;82.97;100293.75;5088852;28;20678;-81
2021/11/11 06:57:08;;;;;;;33.30;20.10;;;;;;;5.62;82.01;100304.22;5107200;28;20253;-81
2021/11/11 06:59:43;;;;;;;34.30;20.63;;;;;;;5.69;81.89;100289.25;5105244;28;20231;-81
2021/11/11 07:02:17;;;;;;;33.60;20.77;;;;;;;5.74;82.48;100297.53;5111279;22;20232;31
2021/11/11 07:04:47;;;;;;;33.30;19.83;;;;;;;5.78;81.87;100306.00;5036847;23;20285;-81
2021/11/11 07:07:15;;;;;;;32.53;20.47;;;;;;;5.76;81.66;100291.06;5062449;28;20236;-82
2021/11/11 07:09:50;;;;;;;32.67;21.67;;;;;;;5.78;81.59;100304.19;5088385;23;20229;-81
2021/11/11 07:12:17;;;;;;;33.77;21.47;;;;;;;5.83;81.46;100303.66;5082092;22;20215;-81
2021/11/11 07:14:45;;;;;;;33.67;21.00;;;;;;;5.83;80.87;100280.56;5086781;28;20225;-81
2021/11/11 07:17:15;;;;;;;33.53;21.07;;;;;;;5.84;80.78;100298.16;5086530;28;20217;-81
2021/11/11 07:19:42;;;;;;;35.23;21.23;;;;;;;5.88;80.39;100301.34;5085416;28;20229;-81
2021/11/11 07:22:11;;;;;;;36.37;22.90;;;;;;;5.84;80.59;100298.16;5083531;28;20288;-81
2021/11/11 07:24:38;;;;;;;36.17;23.07;;;;;;;5.78;80.75;100304.97;5072466;28;20529;-82
2021/11/11 07:27:06;;;;;;;35.70;22.93;;;;;;;5.85;80.92;100314.94;5071413;28;20228;-81
2021/11/11 07:29:50;;;;;;;37.50;23.73;;;;;;;5.90;80.56;100312.63;5074721;22;20226;-81
2021/11/11 07:32:19;;;;;;;37.90;24.80;;;;;;;5.92;80.46;100300.81;5013231;28;20671;-81
2021/11/11 07:34:46;;;;;;;36.20;23.37;;;;;;;5.97;80.00;100302.97;5032643;28;20187;-81
2021/11/11 07:37:17;;;;;;;38.63;24.50;;;;;;;5.94;81.16;100305.94;5013720;28;20290;-81
2021/11/11 07:39:46;;;;;;;38.83;23.80;;;;;;;5.95;80.07;100308.44;5032301;28;20292;-81
2021/11/11 07:42:13;;;;;;;44.10;25.50;;;;;;;5.93;81.03;100307.78;5032346;28;20283;-81
2021/11/11 07:44:52;;;;;;;41.17;26.00;;;;;;;5.98;81.82;100305.44;5033087;28;20241;-82
2021/11/11 07:47:28;;;;;;;43.50;26.07;;;;;;;5.89;81.16;100282.53;5033590;28;20242;-81
2021/11/11 07:50:02;;;;;;;41.67;25.87;;;;;;;6.07;81.58;100304.38;5031827;28;20221;-81
2021/11/11 07:52:38;;;;;;;44.97;25.57;;;;;;;6.10;81.18;100306.72;5016560;28;20241;-80
2021/11/11 07:55:08;;;;;;;43.37;25.37;;;;;;;6.12;81.22;100306.53;5032781;28;20325;-81
2021/11/11 07:57:44;;;;;;;40.40;24.93;;;;;;;6.06;80.83;100300.09;5018792;28;20201;-81
2021/11/11 08:00:20;;;;;;;41.80;25.10;;;;;;;6.06;80.68;100309.91;5031819;28;20234;-81
2021/11/11 08:03:33;;;;;;;40.50;24.17;;;;;;;6.22;79.56;100312.47;5033278;28;20249;-81
2021/11/11 08:06:14;;;;;;;39.50;24.03;;;;;;;6.23;80.37;100318.63;5031159;28;20286;-81
2021/11/11 08:08:42;;;;;;;41.47;24.43;;;;;;;6.23;80.21;100316.78;5063827;23;20237;-81
2021/11/11 08:11:16;;;;;;;42.13;25.07;;;;;;;6.23;79.66;100303.47;5085663;23;20232;-81
2021/11/11 08:13:49;;;;;;;38.53;23.77;;;;;;;6.33;79.37;100313.91;5094365;23;20586;-80
2021/11/11 08:16:18;;;;;;;40.17;24.83;;;;;;;6.33;78.98;100321.88;5029698;23;20250;-81
2021/11/11 08:18:52;;;;;;;38.20;23.30;;;;;;;6.38;79.75;100322.19;5028780;28;20277;-81
2021/11/11 08:21:22;;;;;;;39.20;23.30;;;;;;;6.38;79.14;100324.84;5032114;28;20229;-81
2021/11/11 08:23:54;;;;;;;41.87;24.33;;;;;;;6.47;79.75;100323.81;5032859;28;20222;-81
2021/11/11 08:26:32;;;;;;;42.80;24.90;;;;;;;6.46;79.64;100336.28;5031772;28;20254;-81
2021/11/11 08:29:07;;;;;;;40.83;24.20;;;;;;;6.31;79.34;100323.88;5049362;23;20267;-82
2021/11/11 08:31:38;;;;;;;43.63;25.77;;;;;;;6.38;79.23;100333.69;5072529;28;20216;-82
2021/11/11 08:34:15;;;;;;;42.50;25.37;;;;;;;6.39;80.04;100331.84;5070503;28;20229;-81
2021/11/11 08:36:47;;;;;;;42.30;24.70;;;;;;;6.35;78.66;100322.53;5070559;28;20224;-81
2021/11/11 08:39:20;;;;;;;43.20;25.60;;;;;;;6.27;80.10;100317.25;5093236;23;20225;-81
2021/11/11 08:42:01;;;;;;;42.47;25.77;;;;;;;6.46;79.76;100330.94;5091189;28;20205;-81
2021/11/11 08:44:39;;;;;;;41.10;24.17;;;;;;;6.45;79.52;100339.09;5074631;28;20643;-81
2021/11/11 08:47:22;;;;;;;40.77;23.83;;;;;;;6.43;78.68;100349.13;5090519;28;20224;-81
2021/11/11 08:50:06;;;;;;;41.77;25.27;;;;;;;6.48;79.67;100339.59;5072445;28;20227;-81
2021/11/11 08:52:54;;;;;;;42.40;25.53;;;;;;;6.58;79.17;100345.50;5091436;28;20216;-80
2021/11/11 08:55:33;;;;;;;41.67;25.60;;;;;;;6.56;78.60;100349.38;5075675;28;20224;-82
2021/11/11 08:58:04;;;;;;;42.13;25.97;;;;;;;6.63;78.80;100337.81;5098619;23;20589;-81
2021/11/11 09:00:50;;;;;;;45.20;26.23;;;;;;;6.63;78.61;100350.31;5059439;28;20220;-81
2021/11/11 09:03:25;;;;;;;44.60;26.23;;;;;;;6.59;79.00;100343.69;5073237;28;20232;-81
2021/11/11 09:05:53;;;;;;;46.80;26.17;;;;;;;6.57;78.94;100335.88;5096711;22;20240;-81
2021/11/11 09:08:46;;;;;;;44.70;25.83;;;;;;;6.70;79.45;100339.78;5060264;23;20238;-81
2021/11/11 09:11:24;;;;;;;42.37;24.87;;;;;;;6.57;79.12;100325.25;5087778;23;20236;-81
2021/11/11 09:14:02;;;;;;;40.80;24.33;;;;;;;6.63;79.06;100332.50;5075099;28;20228;-81
2021/11/11 09:16:36;;;;;;;40.37;24.60;;;;;;;6.71;79.08;100342.28;5075056;22;20253;-82
2021/11/11 09:19:23;;;;;;;37.80;23.70;;;;;;;6.81;78.27;100344.72;5021699;28;20248;-81
2021/11/11 09:22:07;;;;;;;34.23;22.63;;;;;;;6.87;78.58;100349.31;5063037;23;20257;-82
2021/11/11 09:24:39;;;;;;;37.83;23.97;;;;;;;6.83;77.70;100354.16;5062318;22;20675;-82
2021/11/11 09:27:20;;;;;;;41.13;25.00;;;;;;;6.75;78.08;100346.25;5074329;28;20228;-81
2021/11/11 09:29:54;;;;;;;42.00;25.80;;;;;;;6.75;78.35;100356.91;5088354;28;20265;-81
2021/11/11 09:32:25;;;;;;;43.13;24.80;;;;;;;6.80;78.67;100353.69;5090017;28;20228;-81
2021/11/11 09:34:53;;;;;;;40.17;24.93;;;;;;;6.78;78.77;100345.88;5071145;28;20259;-81
2021/11/11 09:37:29;;;;;;;36.67;23.90;;;;;;;6.79;78.44;100344.88;5096067;22;20229;-82
2021/11/11 09:40:18;;;;;;;39.53;23.23;;;;;;;6.78;77.40;100353.03;5070718;28;20236;-81
2021/11/11 09:42:52;;;;;;;36.83;23.37;;;;;;;6.85;77.72;100348.66;5096981;22;20243;-81
2021/11/11 09:45:35;;;;;;;38.60;23.20;;;;;;;6.81;77.54;100329.53;5056597;28;20686;-81
2021/11/11 09:48:09;;;;;;;36.00;22.63;;;;;;;6.76;77.33;100317.78;5089896;28;20258;-81
2021/11/11 09:50:50;;;;;;;36.33;22.83;;;;;;;6.90;77.35;100335.66;5090041;28;20233;-81
2021/11/11 09:53:23;;;;;;;37.43;23.67;;;;;;;6.70;78.22;100318.47;5089922;28;20354;-81
2021/11/11 09:59:21;;;;;;;37.17;22.30;;;;;;;6.95;77.57;100334.06;5094726;22;20670;-81
2021/11/11 10:02:02;;;;;;;35.80;23.83;;;;;;;6.89;77.05;100334.81;5184468;22;20228;-81
2021/11/11 10:04:40;;;;;;;34.57;22.07;;;;;;;6.87;78.05;100331.50;5072063;28;20224;-81
2021/11/11 10:07:19;;;;;;;33.03;21.17;;;;;;;6.97;77.17;100333.91;5072066;28;20224;-82
2021/11/11 10:09:54;;;;;;;34.63;21.90;;;;;;;6.95;77.20;100327.94;5087987;28;20236;-81
2021/11/11 10:12:22;;;;;;;32.43;20.93;;;;;;;6.93;76.46;100314.81;5087971;28;20224;-83
2021/11/11 10:15:10;;;;;;;32.83;21.00;;;;;;;7.03;76.37;100330.53;5087394;28;20627;-81
2021/11/11 10:17:42;;;;;;;31.80;20.43;;;;;;;7.09;76.70;100325.28;5071205;28;20263;-81
2021/11/11 10:20:16;;;;;;;33.97;20.73;;;;;;;7.02;76.73;100311.06;5088108;28;20232;-81
2021/11/11 10:22:49;;;;;;;31.73;20.20;;;;;;;7.16;76.19;100316.59;5071953;28;20228;-82
2021/11/11 10:25:18;;;;;;;30.73;19.90;;;;;;;6.96;76.68;100317.09;5073026;28;20209;-81
2021/11/11 10:27:59;;;;;;;31.43;20.90;;;;;;;6.96;76.01;100301.09;5089066;28;20212;-81
2021/11/11 10:30:30;;;;;;;29.53;20.57;;;;;;;7.09;76.85;100309.31;5070800;28;20315;-82
2021/11/11 10:33:12;;;;;;;30.77;21.10;;;;;;;7.20;76.32;100320.53;5086320;28;20264;-82
2021/11/11 10:35:54;;;;;;;31.90;20.60;;;;;;;7.29;75.59;100304.28;5086226;28;20620;-82
2021/11/11 10:38:26;;;;;;;30.53;20.37;;;;;;;7.28;75.65;100315.16;5084517;28;20304;-82
2021/11/11 10:40:55;;;;;;;26.50;19.77;;;;;;;7.26;75.95;100304.66;5085363;28;20234;-82
2021/11/11 10:43:28;;;;;;;30.60;20.97;;;;;;;7.24;74.84;100309.34;5070748;28;20232;-81
2021/11/11 10:45:56;;;;;;;29.40;19.67;;;;;;;7.22;75.46;100302.56;5088288;28;20231;-82
2021/11/11 10:48:26;;;;;;;32.77;22.20;;;;;;;7.28;75.91;100305.31;5087898;28;20184;-83
2021/11/11 10:51:05;;;;;;;30.17;21.30;;;;;;;7.34;75.39;100309.09;5070188;28;20292;-82
2021/11/11 10:53:47;;;;;;;33.50;20.90;;;;;;;7.20;75.09;100304.56;5105620;22;20233;-82
2021/11/11 10:56:19;;;;;;;31.13;20.77;;;;;;;7.16;75.90;100290.78;5051958;28;20510;-81
2021/11/11 10:58:50;;;;;;;28.77;20.30;;;;;;;7.21;75.33;100291.06;5087198;28;20228;-82
2021/11/11 11:01:23;;;;;;;30.57;21.63;;;;;;;7.22;75.74;100297.22;5088672;23;20209;-81
2021/11/11 11:03:57;;;;;;;31.53;20.90;;;;;;;7.18;75.69;100294.09;5054432;28;20239;-82
2021/11/11 11:06:34;;;;;;;29.07;20.60;;;;;;;7.13;75.43;100290.31;5056003;28;20229;-83
2021/11/11 11:09:15;;;;;;;30.77;21.80;;;;;;;7.11;76.06;100277.16;5071055;28;20228;-82
2021/11/11 11:11:43;;;;;;;32.83;23.80;;;;;;;7.33;75.16;100284.25;5054927;28;20228;-83
2021/11/11 11:14:20;;;;;;;30.37;21.17;;;;;;;7.29;75.26;100274.16;5054231;28;20209;-82
2021/11/11 11:17:10;;;;;;;30.77;20.73;;;;;;;7.44;74.67;100282.97;5093272;22;20240;-83
2021/11/11 11:19:37;;;;;;;27.97;20.37;;;;;;;7.42;74.75;100280.50;5091562;28;20263;-82
2021/11/11 11:22:08;;;;;;;25.87;19.60;;;;;;;7.40;74.21;100284.38;5092367;28;20295;-81
2021/11/11 11:24:35;;;;;;;27.07;19.93;;;;;;;7.38;74.41;100273.88;5057329;28;20221;-81
2021/11/11 11:27:08;;;;;;;27.73;20.07;;;;;;;7.39;74.99;100267.53;5091786;28;20236;-83
2021/11/11 11:29:56;;;;;;;27.57;20.20;;;;;;;7.45;74.83;100266.81;5075142;28;20523;-84
2021/11/11 11:32:30;;;;;;;27.63;20.20;;;;;;;7.38;74.98;100265.06;5092588;28;20236;-81
2021/11/11 11:35:03;;;;;;;25.83;19.50;;;;;;;7.42;74.36;100263.66;5091832;28;20227;-81
2021/11/11 11:37:35;;;;;;;26.33;19.57;;;;;;;7.44;74.99;100261.66;5091342;28;20270;-84
2021/11/11 11:40:14;;;;;;;28.10;19.70;;;;;;;7.48;74.08;100261.09;5096096;22;20236;-83
2021/11/11 11:42:51;;;;;;;25.53;19.03;;;;;;;7.46;73.66;100255.16;5074800;28;20220;-81
2021/11/11 11:45:23;;;;;;;26.17;18.53;;;;;;;7.48;74.23;100253.09;5091678;28;20301;-82
2021/11/11 11:48:00;;;;;;;24.37;18.10;;;;;;;7.28;73.96;100245.84;5076002;28;20315;-82
2021/11/11 11:50:34;;;;;;;24.77;18.10;;;;;;;7.43;74.73;100258.16;5057609;28;20220;-82
2021/11/11 11:53:13;;;;;;;24.60;18.63;;;;;;;7.44;74.64;100245.66;5091332;28;20259;-83
2021/11/11 11:56:05;;;;;;;26.77;18.87;;;;;;;7.45;74.11;100252.66;5091423;28;20644;-81
2021/11/11 11:58:54;;;;;;;26.67;17.63;;;;;;;7.38;75.04;100243.72;5091737;28;20236;-82
2021/11/11 12:07:28;;;;;;;26.00;19.23;;;;;;;7.36;74.27;100249.25;5042242;28;20237;-82
2021/11/11 12:38:30;;;;;;;23.93;18.57;;;;;;;7.40;74.10;100231.88;5069996;28;20251;-82
2021/11/11 12:40:18;;;;;;;24.03;18.90;;;;;;;7.40;73.76;100239.88;5069213;28;20236;-81
2021/11/11 12:42:54;;;;;;;25.03;18.60;;;;;;;7.35;74.32;100225.44;5050022;28;20252;-84
2021/11/11 12:45:27;;;;;;;23.03;17.87;;;;;;;7.45;73.92;100240.16;5070071;28;20233;-84